Time;durP1;ratioP1;P1;durP2;ratioP2;P2;SDS_P1;SDS_P2;PMS_P1;PMS_P2;Temp;Humidity;BMP_temperature;BMP_pressure;BME280_temperature;BME280_humidity;BME280_pressure;Samples;Min_cycle;Max_cycle;Signal;HPM_P1;HPM_P2
2024/03/10 00:02:03;;;;;;;;;;;;;;;21.08;44.62;99968.98;2343116;75;52183;-80
2024/03/10 00:05:04;;;;;;;;;;;;;;;21.09;44.55;99961.73;2306463;76;51535;-79
2024/03/10 00:08:06;;;;;;;;;;;;;;;21.08;44.55;99964.95;2281067;76;51637;-80
2024/03/10 00:11:08;;;;;;;;;;;;;;;21.10;44.49;99968.78;2306532;76;50351;-80
2024/03/10 00:14:09;;;;;;;;;;;;;;;21.09;44.47;99961.23;2343301;76;50456;-80
2024/03/10 00:17:11;;;;;;;;;;;;;;;21.09;44.50;99953.66;2343133;76;50387;-81
2024/03/10 00:20:13;;;;;;;;;;;;;;;21.09;44.49;99955.86;2306098;76;50993;-80
2024/03/10 00:23:14;;;;;;;;;;;;;;;21.10;44.44;99956.67;2306405;76;51536;-79
2024/03/10 00:26:16;;;;;;;;;;;;;;;21.08;44.43;99950.16;2343169;76;52175;-79
2024/03/10 00:29:17;;;;;;;;;;;;;;;21.08;44.51;99948.81;2343539;76;51442;-79
2024/03/10 00:32:19;;;;;;;;;;;;;;;21.09;44.42;99950.48;2306857;76;52302;-80
2024/03/10 00:35:21;;;;;;;;;;;;;;;21.08;44.45;99950.16;2343521;76;51539;-79
2024/03/10 00:38:23;;;;;;;;;;;;;;;21.09;44.41;99947.78;2343523;76;50269;-79
2024/03/10 00:41:25;;;;;;;;;;;;;;;21.08;44.39;99934.02;2343568;76;50689;-79
2024/03/10 00:44:26;;;;;;;;;;;;;;;21.09;44.38;99942.90;2306596;76;51575;-79
2024/03/10 00:47:28;;;;;;;;;;;;;;;21.09;44.44;99938.38;2306420;76;50344;-79
2024/03/10 00:50:29;;;;;;;;;;;;;;;21.08;44.47;99943.43;2343700;76;50675;-79
2024/03/10 00:53:31;;;;;;;;;;;;;;;21.09;44.41;99945.59;2343551;76;51741;-79
2024/03/10 00:56:33;;;;;;;;;;;;;;;21.08;44.42;99943.43;2306294;74;52477;-79
2024/03/10 00:59:34;;;;;;;;;;;;;;;21.08;44.41;99946.12;2344092;76;51449;-79
2024/03/10 01:02:37;;;;;;;;;;;;;;;21.09;44.38;99946.94;2344423;76;50727;-79
2024/03/10 01:05:39;;;;;;;;;;;;;;;21.08;44.41;99947.47;2343762;76;51557;-79
2024/03/10 01:08:40;;;;;;;;;;;;;;;21.07;44.42;99939.10;2305914;76;49495;-78
2024/03/10 01:11:47;;;;;;;;;;;;;;;21.07;44.44;99941.80;2342939;76;50260;-77
2024/03/10 01:14:48;;;;;;;;;;;;;;;21.07;44.46;99940.45;2308275;76;22514;-79
2024/03/10 01:17:49;;;;;;;;;;;;;;;21.07;44.44;99939.10;2343182;76;51483;-77
2024/03/10 01:20:51;;;;;;;;;;;;;;;21.06;44.41;99932.05;2343702;76;51345;-79
2024/03/10 01:23:53;;;;;;;;;;;;;;;21.07;44.42;99933.72;2343173;76;51452;-79
2024/03/10 01:26:54;;;;;;;;;;;;;;;21.07;44.42;99922.14;2343475;76;50655;-79
2024/03/10 01:29:56;;;;;;;;;;;;;;;21.06;44.43;99926.67;2306903;76;51509;-79
2024/03/10 01:32:58;;;;;;;;;;;;;;;21.06;44.41;99924.52;2281614;76;50918;-80
2024/03/10 01:36:00;;;;;;;;;;;;;;;21.05;44.44;99917.50;2343806;76;49970;-80
2024/03/10 01:39:02;;;;;;;;;;;;;;;21.04;44.44;99911.30;2343878;76;51428;-79
2024/03/10 01:42:05;;;;;;;;;;;;;;;21.04;44.41;99901.88;2343905;75;51513;-79
2024/03/10 01:45:07;;;;;;;;;;;;;;;21.05;44.46;99905.39;2281335;76;49943;-79
2024/03/10 01:48:09;;;;;;;;;;;;;;;21.04;44.44;99891.63;2306346;76;51483;-79
2024/03/10 01:51:13;;;;;;;;;;;;;;;21.04;44.45;99895.66;2343783;76;50378;-79
2024/03/10 01:54:13;;;;;;;;;;;;;;;21.03;44.43;99889.45;2343671;76;22313;-79
2024/03/10 01:57:15;;;;;;;;;;;;;;;21.03;44.45;99890.80;2306559;76;50945;-80
2024/03/10 02:00:18;;;;;;;;;;;;;;;21.03;44.44;99888.12;2343866;76;51338;-80
2024/03/10 02:03:20;;;;;;;;;;;;;;;21.04;44.45;99883.05;2307462;76;50752;-79
2024/03/10 02:06:21;;;;;;;;;;;;;;;21.03;44.44;99883.27;2343590;76;51423;-80
2024/03/10 02:09:24;;;;;;;;;;;;;;;21.04;44.40;99888.44;2307041;76;50086;-81
2024/03/10 02:12:26;;;;;;;;;;;;;;;21.05;44.39;99886.56;2343862;76;51503;-80
2024/03/10 02:15:28;;;;;;;;;;;;;;;21.04;44.40;99892.47;2343916;75;51505;-80
2024/03/10 02:18:30;;;;;;;;;;;;;;;21.05;44.39;99886.03;2307813;76;50681;-80
2024/03/10 02:21:31;;;;;;;;;;;;;;;21.05;44.36;99880.66;2307015;76;51183;-79
2024/03/10 02:24:33;;;;;;;;;;;;;;;21.05;44.29;99877.97;2343941;76;51380;-80
2024/03/10 02:27:42;;;;;;;;;;;;;;;21.05;44.36;99873.11;2343894;76;50595;-80
2024/03/10 02:30:43;;;;;;;;;;;;;;;21.05;44.33;99879.31;2342405;76;22425;-81
2024/03/10 02:47:14;;;;;;;;;;;;;;;21.03;44.23;99881.39;2343845;76;22400;-80
2024/03/10 02:50:15;;;;;;;;;;;;;;;21.03;44.24;99881.39;2309469;76;51126;-80
2024/03/10 02:53:17;;;;;;;;;;;;;;;21.02;44.23;99874.91;2306604;76;51724;-79
2024/03/10 02:56:25;;;;;;;;;;;;;;;21.02;44.28;99879.75;2343040;75;51095;-79
2024/03/10 02:59:29;;;;;;;;;;;;;;;21.02;44.25;99872.21;2306920;76;50914;-79
2024/03/10 03:02:29;;;;;;;;;;;;;;;21.01;44.23;99880.78;2343570;76;23014;-80
2024/03/10 03:05:31;;;;;;;;;;;;;;;21.02;44.17;99879.75;2343699;76;50717;-80
2024/03/10 03:08:33;;;;;;;;;;;;;;;21.02;44.16;99873.03;2306392;76;50953;-80
2024/03/10 03:11:34;;;;;;;;;;;;;;;21.02;44.19;99869.00;2306400;76;49832;-80
2024/03/10 03:14:36;;;;;;;;;;;;;;;21.01;44.18;99867.33;2342980;76;50679;-80
2024/03/10 03:17:37;;;;;;;;;;;;;;;21.03;44.17;99872.50;2342796;76;50801;-79
2024/03/10 03:20:39;;;;;;;;;;;;;;;21.02;44.17;99863.62;2342706;76;50752;-81
2024/03/10 03:23:41;;;;;;;;;;;;;;;21.04;44.14;99876.83;2306973;76;50047;-79
2024/03/10 03:26:43;;;;;;;;;;;;;;;21.03;44.19;99873.32;2344599;76;51244;-81
2024/03/10 03:29:44;;;;;;;;;;;;;;;21.04;44.21;99880.37;2308466;76;50793;-80
2024/03/10 03:32:46;;;;;;;;;;;;;;;21.02;44.25;99877.06;2344783;76;50289;-79
2024/03/10 03:35:48;;;;;;;;;;;;;;;21.03;44.19;99867.12;2307757;76;49648;-81
2024/03/10 03:38:49;;;;;;;;;;;;;;;21.03;44.19;99873.32;2307681;76;51826;-80
2024/03/10 03:41:51;;;;;;;;;;;;;;;21.02;44.25;99870.87;2307208;76;50805;-79
2024/03/10 03:44:52;;;;;;;;;;;;;;;21.02;44.26;99862.27;2344196;75;51535;-80
2024/03/10 03:47:54;;;;;;;;;;;;;;;21.01;44.22;99864.64;2307700;76;50918;-80
2024/03/10 03:50:55;;;;;;;;;;;;;;;21.01;44.22;99864.64;2344626;76;50582;-80
2024/03/10 03:53:57;;;;;;;;;;;;;;;21.00;44.24;99865.70;2307484;76;50587;-80
2024/03/10 03:56:59;;;;;;;;;;;;;;;21.00;44.21;99868.39;2344347;76;50634;-81
2024/03/10 04:00:05;;;;;;;;;;;;;;;21.01;44.24;99867.86;2308179;76;50066;-80
2024/03/10 04:03:05;;;;;;;;;;;;;;;21.00;44.27;99860.31;2343684;76;23013;-80
2024/03/10 04:06:07;;;;;;;;;;;;;;;21.00;44.27;99864.34;2307803;76;51457;-80
2024/03/10 04:09:09;;;;;;;;;;;;;;;21.01;44.27;99863.82;2344163;76;51743;-80
2024/03/10 04:12:11;;;;;;;;;;;;;;;21.00;44.25;99856.28;2307102;76;50072;-80
2024/03/10 04:15:12;;;;;;;;;;;;;;;21.00;44.23;99857.63;2307071;76;51437;-79
2024/03/10 04:18:14;;;;;;;;;;;;;;;21.01;44.17;99858.44;2343846;76;51422;-80
2024/03/10 04:21:15;;;;;;;;;;;;;;;21.01;44.16;99853.88;2343879;76;51710;-81
2024/03/10 04:24:18;;;;;;;;;;;;;;;21.01;44.10;99857.91;2281852;76;51671;-81
2024/03/10 04:27:19;;;;;;;;;;;;;;;21.01;44.12;99845.81;2307213;76;51209;-80
2024/03/10 04:30:22;;;;;;;;;;;;;;;21.01;44.10;99849.84;2344181;76;50747;-80
2024/03/10 04:33:25;;;;;;;;;;;;;;;21.01;44.10;99848.50;2343689;76;50294;-80
2024/03/10 04:36:29;;;;;;;;;;;;;;;21.02;44.07;99849.35;2306604;76;50993;-79
2024/03/10 04:39:29;;;;;;;;;;;;;;;21.01;44.10;99848.50;2343915;76;22043;-79
2024/03/10 04:42:31;;;;;;;;;;;;;;;21.01;44.08;99847.69;2306926;76;49664;-79
2024/03/10 04:45:33;;;;;;;;;;;;;;;21.01;44.03;99843.13;2343890;76;50542;-79
2024/03/10 04:48:36;;;;;;;;;;;;;;;21.01;44.04;99839.62;2306996;76;51084;-80
2024/03/10 04:51:38;;;;;;;;;;;;;;;21.01;43.99;99839.09;2343897;76;50834;-80
2024/03/10 04:54:40;;;;;;;;;;;;;;;21.02;43.96;99836.72;2344107;76;50616;-80
2024/03/10 04:57:41;;;;;;;;;;;;;;;21.03;43.98;99834.84;2344073;76;50780;-80
2024/03/10 05:00:43;;;;;;;;;;;;;;;21.03;43.94;99840.23;2307331;76;50953;-80
2024/03/10 05:03:45;;;;;;;;;;;;;;;21.02;43.96;99844.79;2307006;76;50585;-80
2024/03/10 05:06:46;;;;;;;;;;;;;;;21.03;43.99;99841.57;2343524;76;51211;-80
2024/03/10 05:09:48;;;;;;;;;;;;;;;21.03;43.96;99850.98;2343441;76;50680;-80
2024/03/10 05:12:49;;;;;;;;;;;;;;;21.02;43.92;99846.14;2343244;76;50726;-79
2024/03/10 05:15:51;;;;;;;;;;;;;;;21.02;43.97;99851.52;2343462;76;50672;-79
2024/03/10 05:18:54;;;;;;;;;;;;;;;21.02;43.99;99846.14;2343400;76;51570;-80
2024/03/10 05:21:56;;;;;;;;;;;;;;;21.01;43.99;99844.47;2343594;76;51527;-79
2024/03/10 05:24:58;;;;;;;;;;;;;;;21.01;44.05;99853.06;2306908;76;49707;-85
2024/03/10 05:27:59;;;;;;;;;;;;;;;21.00;44.03;99844.70;2342814;76;51492;-83
2024/03/10 05:31:01;;;;;;;;;;;;;;;21.00;44.09;99850.90;2342853;76;50388;-83
2024/03/10 05:34:03;;;;;;;;;;;;;;;21.00;44.21;99848.21;2342826;76;50591;-83
2024/03/10 05:37:04;;;;;;;;;;;;;;;21.00;44.28;99840.67;2305691;76;52404;-83
2024/03/10 05:40:06;;;;;;;;;;;;;;;21.00;44.21;99845.52;2343443;76;51185;-85
2024/03/10 05:43:08;;;;;;;;;;;;;;;20.99;44.37;99834.48;2308989;75;50087;-86
2024/03/10 05:46:09;;;;;;;;;;;;;;;20.99;44.59;99841.20;2353118;72;50677;-86
2024/03/10 05:49:11;;;;;;;;;;;;;;;20.99;44.63;99833.13;2314674;74;50010;-86
2024/03/10 05:52:13;;;;;;;;;;;;;;;20.99;44.70;99827.75;2348082;74;50801;-84
2024/03/10 05:55:15;;;;;;;;;;;;;;;21.01;44.81;99824.83;2345586;75;50958;-84
2024/03/10 05:58:17;;;;;;;;;;;;;;;21.02;44.91;99825.14;2349857;74;51502;-85
2024/03/10 06:01:23;;;;;;;;;;;;;;;21.01;45.03;99825.64;2281820;74;51259;-85
2024/03/10 06:04:22;;;;;;;;;;;;;;;21.02;45.16;99831.34;2347622;74;22353;-86
2024/03/10 06:07:24;;;;;;;;;;;;;;;21.01;45.25;99826.98;2385607;74;50761;-87
2024/03/10 06:10:26;;;;;;;;;;;;;;;21.01;45.37;99821.61;2385275;74;51477;-87
2024/03/10 06:13:28;;;;;;;;;;;;;;;21.02;45.40;99823.27;2346942;74;49518;-86
2024/03/10 06:16:30;;;;;;;;;;;;;;;21.02;45.48;99826.48;2384767;74;50714;-86
2024/03/10 06:26:10;;;;;;;;;;;;;;;21.02;45.33;99823.27;2385472;74;24440;-85
2024/03/10 06:29:12;;;;;;;;;;;;;;;21.03;45.20;99820.88;2396209;74;51521;-86
2024/03/10 06:32:14;;;;;;;;;;;;;;;21.03;45.16;99818.71;2397911;74;51760;-86
2024/03/10 06:35:17;;;;;;;;;;;;;;;21.03;45.15;99816.84;2397850;74;51814;-86
2024/03/10 06:38:19;;;;;;;;;;;;;;;21.03;45.17;99812.80;2361086;74;49493;-85
2024/03/10 06:41:20;;;;;;;;;;;;;;;21.04;45.18;99817.66;2361574;74;50673;-85
2024/03/10 06:44:23;;;;;;;;;;;;;;;21.02;45.17;99819.23;2361816;74;50712;-84
2024/03/10 06:47:24;;;;;;;;;;;;;;;21.03;45.20;99821.41;2398114;74;50730;-86
2024/03/10 06:50:28;;;;;;;;;;;;;;;21.02;45.20;99819.23;2347829;74;50113;-84
2024/03/10 06:53:30;;;;;;;;;;;;;;;21.02;45.24;99823.27;2397541;74;50856;-85
2024/03/10 06:56:32;;;;;;;;;;;;;;;21.03;45.27;99815.49;2398577;74;51334;-86
2024/03/10 06:59:34;;;;;;;;;;;;;;;21.04;45.26;99821.19;2398847;74;51708;-84
2024/03/10 07:02:37;;;;;;;;;;;;;;;21.03;45.20;99814.15;2362872;74;50924;-85
2024/03/10 07:05:41;;;;;;;;;;;;;;;21.04;45.22;99818.50;2363846;74;50674;-85
2024/03/10 07:08:43;;;;;;;;;;;;;;;21.03;45.23;99824.91;2399686;74;50392;-85
2024/03/10 07:11:44;;;;;;;;;;;;;;;21.04;45.25;99829.27;2399652;74;50695;-86
2024/03/10 07:14:46;;;;;;;;;;;;;;;21.04;45.25;99827.92;2363048;74;52485;-86
2024/03/10 07:17:48;;;;;;;;;;;;;;;21.03;45.24;99819.53;2399084;74;50236;-84
2024/03/10 07:20:49;;;;;;;;;;;;;;;21.04;45.24;99819.84;2399642;74;50772;-83
2024/03/10 07:23:51;;;;;;;;;;;;;;;21.04;45.19;99825.23;2399960;74;50820;-83
2024/03/10 07:26:53;;;;;;;;;;;;;;;21.06;45.47;99818.27;2364256;74;50095;-83
2024/03/10 07:29:54;;;;;;;;;;;;;;;21.07;45.35;99828.82;2364083;74;51431;-82
2024/03/10 07:32:56;;;;;;;;;;;;;;;21.08;45.39;99817.00;2362432;74;50759;-83
2024/03/10 07:35:57;;;;;;;;;;;;;;;21.09;45.39;99813.29;2399762;74;50696;-83
2024/03/10 07:39:00;;;;;;;;;;;;;;;21.09;45.31;99813.29;2363142;74;51102;-82
2024/03/10 07:42:03;;;;;;;;;;;;;;;21.10;45.26;99806.85;2363606;74;51643;-83
2024/03/10 07:45:05;;;;;;;;;;;;;;;21.12;45.32;99803.11;2363242;74;49753;-84
2024/03/10 07:48:06;;;;;;;;;;;;;;;21.10;45.33;99802.82;2361982;74;50008;-84
2024/03/10 07:51:08;;;;;;;;;;;;;;;21.10;45.37;99806.85;2361673;74;51535;-85
2024/03/10 07:54:10;;;;;;;;;;;;;;;21.13;45.38;99810.97;2398472;74;52000;-83
2024/03/10 07:57:13;;;;;;;;;;;;;;;21.13;45.42;99810.16;2397801;74;50683;-83
2024/03/10 08:00:16;;;;;;;;;;;;;;;21.10;45.60;99809.55;2398688;74;50747;-84
2024/03/10 08:03:19;;;;;;;;;;;;;;;21.11;45.67;99815.74;2348674;74;52423;-84
2024/03/10 08:06:21;;;;;;;;;;;;;;;21.12;45.68;99815.21;2399120;74;50752;-85
2024/03/10 08:09:23;;;;;;;;;;;;;;;21.14;45.67;99811.78;2399965;74;51011;-84
2024/03/10 08:12:25;;;;;;;;;;;;;;;21.15;45.72;99816.14;2398426;74;50810;-83
2024/03/10 08:15:26;;;;;;;;;;;;;;;21.16;45.61;99806.48;2363459;74;51041;-84
2024/03/10 08:18:28;;;;;;;;;;;;;;;21.17;45.63;99808.65;2400246;74;51551;-84
2024/03/10 08:21:30;;;;;;;;;;;;;;;21.16;45.57;99804.33;2397206;74;51285;-85
2024/03/10 08:24:32;;;;;;;;;;;;;;;21.16;45.60;99809.17;2344490;76;50720;-84
2024/03/10 08:27:36;;;;;;;;;;;;;;;21.17;45.66;99793.86;2307886;76;50128;-86
2024/03/10 08:30:38;;;;;;;;;;;;;;;21.21;45.91;99799.11;2308739;76;51557;-85
2024/03/10 08:33:40;;;;;;;;;;;;;;;21.22;46.04;99794.02;2343959;76;50627;-83
2024/03/10 08:36:41;;;;;;;;;;;;;;;21.23;46.14;99793.80;2324123;74;50541;-82
2024/03/10 08:39:44;;;;;;;;;;;;;;;21.24;46.13;99797.31;2297449;76;49396;-82
2024/03/10 08:42:46;;;;;;;;;;;;;;;21.24;46.17;99786.02;2354535;74;51221;-82
2024/03/10 08:45:48;;;;;;;;;;;;;;;21.26;46.16;99783.94;2384995;74;50992;-82
2024/03/10 08:48:49;;;;;;;;;;;;;;;21.27;46.05;99789.64;2381454;74;52358;-84
2024/03/10 08:51:51;;;;;;;;;;;;;;;21.29;46.03;99792.09;2344045;74;50140;-82
2024/03/10 08:54:53;;;;;;;;;;;;;;;21.30;45.89;99795.10;2360366;74;50694;-82
2024/03/10 08:57:54;;;;;;;;;;;;;;;21.31;45.81;99788.66;2354008;74;51559;-82
2024/03/10 09:00:56;;;;;;;;;;;;;;;21.31;45.93;99795.39;2348389;74;52120;-85
2024/03/10 09:04:02;;;;;;;;;;;;;;;21.33;46.00;99790.62;2315070;75;50844;-81
2024/03/10 09:07:01;;;;;;;;;;;;;;;21.37;46.13;99789.11;2328989;74;22381;-84
2024/03/10 09:10:05;;;;;;;;;;;;;;;21.43;45.93;99781.55;2313997;76;51454;-82
2024/03/10 09:13:07;;;;;;;;;;;;;;;21.50;45.91;99782.30;2369564;74;52466;-84
2024/03/10 09:16:10;;;;;;;;;;;;;;;21.53;46.22;99779.16;2345360;74;49496;-84
2024/03/10 09:19:12;;;;;;;;;;;;;;;21.60;46.92;99783.62;2383980;74;51509;-82
2024/03/10 09:22:15;;;;;;;;;;;;;;;21.67;47.36;99790.59;2384154;74;51544;-81
2024/03/10 09:25:22;;;;;;;;;;;;;;;21.74;48.76;99783.27;2383719;74;50935;-80
2024/03/10 09:28:25;;;;;;;;;;;;;;;21.88;48.54;99773.67;2345471;74;52459;-81
2024/03/10 09:31:27;;;;;;;;;;;;;;;22.03;48.35;99780.02;2384355;74;50302;-81
2024/03/10 09:34:29;;;;;;;;;;;;;;;22.01;48.09;99785.63;2383574;74;52200;-80
2024/03/10 09:37:30;;;;;;;;;;;;;;;21.94;46.43;99785.73;2383962;74;50368;-81
2024/03/10 09:40:32;;;;;;;;;;;;;;;21.89;46.17;99776.69;2345592;74;49536;-80
2024/03/10 09:43:33;;;;;;;;;;;;;;;21.89;46.53;99785.58;2346184;74;51435;-81
2024/03/10 09:46:35;;;;;;;;;;;;;;;21.91;47.17;99792.92;2383631;74;50770;-81
2024/03/10 09:49:38;;;;;;;;;;;;;;;22.09;47.62;99788.03;2345165;74;50089;-82
2024/03/10 09:52:40;;;;;;;;;;;;;;;22.30;47.00;99788.09;2333686;74;51055;-81
2024/03/10 09:55:42;;;;;;;;;;;;;;;22.48;46.36;99780.47;2374452;74;52319;-82
2024/03/10 09:58:44;;;;;;;;;;;;;;;22.37;46.49;99773.16;2342452;76;50572;-81
2024/03/10 10:01:46;;;;;;;;;;;;;;;22.31;46.88;99772.20;2342552;76;51036;-82
2024/03/10 10:04:51;;;;;;;;;;;;;;;22.23;46.36;99772.53;2318280;76;51162;-81
2024/03/10 10:07:52;;;;;;;;;;;;;;;22.18;46.46;99761.58;2342994;75;51273;-80
2024/03/10 10:10:54;;;;;;;;;;;;;;;22.13;46.51;99777.61;2343142;74;50676;-81
2024/03/10 10:14:14;;;;;;;;;;;;;;;22.08;46.54;99764.81;2344525;75;50607;-82
2024/03/10 10:17:22;;;;;;;;;;;;;;;22.06;46.60;99766.09;2344483;76;22305;-80
2024/03/10 10:20:28;;;;;;;;;;;;;;;22.03;46.54;99763.86;2344883;75;51036;-80
2024/03/10 10:23:31;;;;;;;;;;;;;;;22.01;46.83;99769.99;2342946;76;50355;-80
2024/03/10 10:26:33;;;;;;;;;;;;;;;22.00;46.84;99761.62;2342271;76;51563;-80
2024/03/10 10:29:52;;;;;;;;;;;;;;;21.98;46.89;99761.02;2344163;75;50055;-79
2024/03/10 10:33:04;;;;;;;;;;;;;;;21.98;47.04;99761.02;2344094;75;51017;-82
2024/03/10 10:36:06;;;;;;;;;;;;;;;21.96;47.02;99758.55;2342055;75;51380;-80
2024/03/10 10:39:09;;;;;;;;;;;;;;;21.94;46.95;99758.80;2328715;74;50153;-80
2024/03/10 10:42:11;;;;;;;;;;;;;;;21.93;47.00;99750.39;2382140;74;51532;-82
2024/03/10 10:45:14;;;;;;;;;;;;;;;21.91;46.90;99741.74;2309289;76;50938;-80
2024/03/10 10:48:20;;;;;;;;;;;;;;;21.92;46.89;99743.91;2343168;74;50494;-81
2024/03/10 10:51:22;;;;;;;;;;;;;;;21.92;46.80;99738.52;2343221;76;50708;-81
2024/03/10 10:54:24;;;;;;;;;;;;;;;21.92;46.78;99731.25;2343088;76;50983;-80
2024/03/10 10:57:25;;;;;;;;;;;;;;;21.92;46.71;99723.17;2306123;76;49701;-81
2024/03/10 11:00:27;;;;;;;;;;;;;;;21.91;46.58;99720.20;2305922;76;50877;-80
2024/03/10 11:03:32;;;;;;;;;;;;;;;21.91;46.56;99709.92;2306312;76;49699;-80
2024/03/10 11:06:32;;;;;;;;;;;;;;;21.89;46.50;99715.55;2306360;76;22375;-81
2024/03/10 11:09:36;;;;;;;;;;;;;;;21.87;46.45;99710.92;2280967;76;49718;-80
2024/03/10 11:12:37;;;;;;;;;;;;;;;21.86;46.42;99706.59;2306639;76;50391;-81
2024/03/10 11:15:39;;;;;;;;;;;;;;;21.86;46.31;99701.20;2342942;76;50218;-81
2024/03/10 11:18:41;;;;;;;;;;;;;;;21.84;46.30;99693.88;2343212;76;51527;-81
2024/03/10 11:21:45;;;;;;;;;;;;;;;21.84;46.20;99700.61;2280875;76;51723;-80
2024/03/10 11:24:48;;;;;;;;;;;;;;;21.82;46.12;99695.97;2343138;76;51528;-80
2024/03/10 11:27:50;;;;;;;;;;;;;;;21.82;46.06;99692.45;2338865;76;51564;-80
2024/03/10 11:30:53;;;;;;;;;;;;;;;21.79;46.02;99680.27;2343032;76;50889;-80
2024/03/10 11:33:58;;;;;;;;;;;;;;;21.79;46.00;99688.34;2305563;76;51691;-81
2024/03/10 11:37:00;;;;;;;;;;;;;;;21.76;45.92;99687.46;2280773;76;50158;-81
2024/03/10 11:40:04;;;;;;;;;;;;;;;21.74;45.95;99682.82;2342888;76;51583;-81
2024/03/10 11:43:05;;;;;;;;;;;;;;;21.73;46.05;99678.47;2342028;76;50280;-81
2024/03/10 11:46:17;;;;;;;;;;;;;;;21.71;45.97;99675.20;2305858;76;51136;-81
2024/03/10 11:49:20;;;;;;;;;;;;;;;21.70;45.98;99670.85;2343529;76;51496;-81
2024/03/10 11:52:21;;;;;;;;;;;;;;;21.69;45.88;99663.30;2343657;76;50491;-81
2024/03/10 11:55:23;;;;;;;;;;;;;;;21.68;46.00;99668.91;2343128;76;50416;-80
2024/03/10 11:58:25;;;;;;;;;;;;;;;21.67;45.91;99653.28;2306108;76;51176;-80
2024/03/10 12:01:26;;;;;;;;;;;;;;;21.67;45.96;99650.59;2343034;76;50403;-81
2024/03/10 12:04:28;;;;;;;;;;;;;;;21.68;45.88;99654.09;2306085;76;51290;-80
2024/03/10 12:07:30;;;;;;;;;;;;;;;21.66;45.88;99643.58;2342781;76;50739;-80
2024/03/10 12:10:32;;;;;;;;;;;;;;;21.64;45.85;99640.81;2280979;76;51762;-79
2024/03/10 12:13:34;;;;;;;;;;;;;;;21.63;45.79;99636.45;2343035;76;50726;-80
2024/03/10 12:16:47;;;;;;;;;;;;;;;21.62;45.82;99627.56;2306040;76;51425;-80
2024/03/10 12:19:44;;;;;;;;;;;;;;;21.61;45.82;99631.32;2342101;76;22440;-80
2024/03/10 12:22:46;;;;;;;;;;;;;;;21.59;45.80;99618.61;2306031;76;50984;-80
2024/03/10 12:25:48;;;;;;;;;;;;;;;21.58;45.87;99614.78;2305697;76;50751;-81
2024/03/10 12:28:49;;;;;;;;;;;;;;;21.57;45.82;99611.81;2305928;76;50720;-80
2024/03/10 12:31:51;;;;;;;;;;;;;;;21.56;45.88;99596.72;2343462;76;51518;-80
2024/03/10 12:34:53;;;;;;;;;;;;;;;21.56;45.92;99605.61;2307530;76;50985;-79
2024/03/10 12:37:55;;;;;;;;;;;;;;;21.55;45.88;99592.36;2344954;76;51528;-80
2024/03/10 12:40:57;;;;;;;;;;;;;;;21.53;45.80;99589.39;2344611;76;50954;-80
2024/03/10 12:43:59;;;;;;;;;;;;;;;21.55;45.84;99593.71;2342626;76;51489;-79
2024/03/10 12:47:01;;;;;;;;;;;;;;;21.52;45.96;99601.19;2305875;76;50132;-80
2024/03/10 12:50:07;;;;;;;;;;;;;;;21.53;45.94;99601.50;2342577;76;50142;-80
2024/03/10 12:53:06;;;;;;;;;;;;;;;21.51;45.92;99590.14;2342039;76;22451;-80
2024/03/10 12:56:12;;;;;;;;;;;;;;;21.52;45.94;99579.66;2342474;76;51846;-80
2024/03/10 12:59:13;;;;;;;;;;;;;;;21.52;45.92;99582.34;2342786;76;22761;-80
2024/03/10 13:02:15;;;;;;;;;;;;;;;21.52;45.83;99580.19;2305878;76;50692;-79
2024/03/10 13:05:17;;;;;;;;;;;;;;;21.51;45.84;99575.86;2342523;76;51454;-80
2024/03/10 13:08:19;;;;;;;;;;;;;;;21.49;45.86;99570.70;2342462;76;51532;-80
2024/03/10 13:11:26;;;;;;;;;;;;;;;21.49;45.86;99568.00;2280367;76;50886;-80
2024/03/10 13:14:23;;;;;;;;;;;;;;;21.48;45.88;99558.83;2305743;76;22376;-80
2024/03/10 13:17:25;;;;;;;;;;;;;;;21.47;45.86;99559.33;2342622;76;51462;-80
2024/03/10 13:20:28;;;;;;;;;;;;;;;21.48;45.88;99563.69;2342592;76;50197;-81
2024/03/10 13:23:30;;;;;;;;;;;;;;;21.48;45.89;99565.56;2306034;76;50914;-80
2024/03/10 13:26:31;;;;;;;;;;;;;;;21.47;45.87;99564.72;2342786;76;51442;-80
2024/03/10 13:29:33;;;;;;;;;;;;;;;21.46;45.86;99555.02;2342731;76;51845;-80
2024/03/10 13:32:35;;;;;;;;;;;;;;;21.45;45.88;99560.11;2342606;76;50378;-80
2024/03/10 13:35:36;;;;;;;;;;;;;;;21.45;45.85;99569.53;2305532;76;50976;-81
2024/03/10 13:38:38;;;;;;;;;;;;;;;21.44;45.80;99561.67;2342366;76;51561;-80
2024/03/10 13:41:42;;;;;;;;;;;;;;;21.42;45.76;99560.55;2342429;76;50912;-80
2024/03/10 13:44:43;;;;;;;;;;;;;;;21.44;45.78;99567.05;2306209;76;22345;-80
2024/03/10 13:47:44;;;;;;;;;;;;;;;21.44;45.75;99560.33;2280228;76;50348;-79
2024/03/10 13:50:46;;;;;;;;;;;;;;;21.42;45.76;99553.81;2342683;76;50433;-82
2024/03/10 13:53:47;;;;;;;;;;;;;;;21.42;45.72;99556.50;2342376;76;50597;-81
2024/03/10 13:56:49;;;;;;;;;;;;;;;21.43;45.73;99550.09;2342316;76;51476;-81
2024/03/10 13:59:51;;;;;;;;;;;;;;;21.42;45.69;99539.55;2305946;76;51047;-80
2024/03/10 14:02:53;;;;;;;;;;;;;;;21.42;45.69;99535.51;2306270;76;51514;-81
2024/03/10 14:05:56;;;;;;;;;;;;;;;21.40;45.72;99528.18;2342927;76;50765;-82
2024/03/10 14:08:58;;;;;;;;;;;;;;;21.41;45.75;99533.34;2343214;76;22329;-82
2024/03/10 14:12:00;;;;;;;;;;;;;;;21.40;45.77;99532.22;2306145;76;52374;-81
2024/03/10 14:15:04;;;;;;;;;;;;;;;21.40;45.77;99533.56;2306442;76;51473;-80
2024/03/10 14:18:05;;;;;;;;;;;;;;;21.40;45.76;99528.18;2343706;76;22208;-79
2024/03/10 14:21:11;;;;;;;;;;;;;;;21.39;45.77;99531.94;2343579;76;51237;-82
2024/03/10 14:24:10;;;;;;;;;;;;;;;21.39;45.75;99557.50;2307151;76;22368;-86
2024/03/10 14:27:12;;;;;;;;;;;;;;;21.38;45.70;99532.47;2343744;76;51496;-85
2024/03/10 14:30:14;;;;;;;;;;;;;;;21.34;46.47;99547.38;2343940;76;51611;-83
2024/03/10 14:33:16;;;;;;;;;;;;;;;21.36;46.46;99543.95;2306636;76;50694;-83
2024/03/10 14:36:18;;;;;;;;;;;;;;;21.23;41.37;99565.66;2296970;74;51059;-84
2024/03/10 14:39:20;;;;;;;;;;;;;;;21.11;43.71;99558.86;2318104;76;50715;-85
2024/03/10 14:42:22;;;;;;;;;;;;;;;21.15;44.76;99554.67;2306031;76;51475;-83
2024/03/10 14:45:29;;;;;;;;;;;;;;;21.19;44.81;99559.07;2343300;76;50899;-83
2024/03/10 14:48:30;;;;;;;;;;;;;;;21.20;44.86;99559.39;2350276;74;21921;-84
2024/03/10 14:51:35;;;;;;;;;;;;;;;21.21;44.93;99552.41;2330922;72;50595;-85
2024/03/10 14:54:37;;;;;;;;;;;;;;;21.23;44.96;99556.23;2363578;72;51518;-84
2024/03/10 14:57:42;;;;;;;;;;;;;;;21.22;44.94;99549.20;2344054;73;50299;-84
2024/03/10 15:00:43;;;;;;;;;;;;;;;21.24;44.90;99553.83;2343541;76;22265;-83
2024/03/10 15:03:45;;;;;;;;;;;;;;;21.23;44.91;99542.78;2357217;74;52424;-83
2024/03/10 15:06:48;;;;;;;;;;;;;;;21.23;44.97;99540.91;2359915;74;51780;-84
2024/03/10 15:09:50;;;;;;;;;;;;;;;21.22;44.95;99550.04;2385038;74;51646;-85
2024/03/10 15:12:52;;;;;;;;;;;;;;;21.23;44.97;99527.45;2346348;74;50957;-84
2024/03/10 15:15:54;;;;;;;;;;;;;;;21.24;44.98;99537.16;2346180;74;51497;-85
2024/03/10 15:18:55;;;;;;;;;;;;;;;21.24;45.04;99520.20;2384172;74;51309;-86
2024/03/10 15:21:58;;;;;;;;;;;;;;;21.25;45.13;99533.97;2384081;74;50281;-86
2024/03/10 15:25:00;;;;;;;;;;;;;;;21.24;44.92;99533.66;2334307;74;50966;-84
2024/03/10 15:28:03;;;;;;;;;;;;;;;21.21;45.05;99520.66;2383096;74;50779;-82
2024/03/10 15:31:04;;;;;;;;;;;;;;;21.22;44.71;99522.30;2383022;74;50961;-80
2024/03/10 15:34:07;;;;;;;;;;;;;;;21.19;43.17;99517.38;2345045;74;50552;-82
2024/03/10 15:37:10;;;;;;;;;;;;;;;21.06;42.83;99515.15;2345044;74;50110;-83
2024/03/10 15:40:13;;;;;;;;;;;;;;;21.06;43.45;99525.91;2383630;74;51473;-83
2024/03/10 15:43:14;;;;;;;;;;;;;;;21.05;43.35;99527.50;2383769;74;50734;-81
2024/03/10 15:46:16;;;;;;;;;;;;;;;21.06;43.49;99531.81;2383846;74;50727;-83
2024/03/10 15:49:19;;;;;;;47.00;12.20;;;;;;;21.06;43.72;99536.66;2340743;74;51149;-81
2024/03/10 15:52:21;;;;;;;33.35;11.53;;;;;;;21.09;43.95;99538.92;2342522;74;50768;-81
2024/03/10 15:55:24;;;;;;;29.63;11.25;;;;;;;21.17;43.67;99538.30;2380136;74;51529;-81
2024/03/10 15:58:26;;;;;;;40.78;11.63;;;;;;;21.18;44.11;99538.08;2314405;74;52360;-80
2024/03/10 16:01:28;;;;;;;33.42;11.38;;;;;;;21.18;44.15;99535.92;2342147;74;51605;-79
2024/03/10 16:04:30;;;;;;;33.78;11.20;;;;;;;21.19;44.35;99544.27;2380112;74;50346;-80
2024/03/10 16:07:32;;;;;;;46.37;16.27;;;;;;;21.19;44.50;99539.70;2341980;74;50380;-79